Time;durP1;ratioP1;P1;durP2;ratioP2;P2;SDS_P1;SDS_P2;PMS_P1;PMS_P2;Temp;Humidity;BMP_temperature;BMP_pressure;BME280_temperature;BME280_humidity;BME280_pressure;Samples;Min_cycle;Max_cycle;Signal;HPM_P1;HPM_P2
2022/11/13 00:02:31;;;;;;;55.00;24.00;;;;;;;6.35;95.35;99982.16;102636;1305;22508;-77
2022/11/13 00:05:16;;;;;;;56.50;24.20;;;;;;;6.34;95.14;99986.70;102559;1297;137858;-78
2022/11/13 00:08:02;;;;;;;59.10;25.30;;;;;;;6.35;95.48;99989.09;102715;1307;22516;-78
2022/11/13 00:10:48;;;;;;;59.20;26.20;;;;;;;6.37;95.34;99982.45;103690;1318;138262;-76
2022/11/13 00:13:34;;;;;;;61.50;26.80;;;;;;;6.37;95.27;99980.99;102319;1287;22501;-78
2022/11/13 00:16:20;;;;;;;61.50;27.30;;;;;;;6.38;95.44;99978.86;102461;1294;140091;-77
2022/11/13 00:19:06;;;;;;;58.20;25.70;;;;;;;6.38;94.96;99978.65;102612;1302;23354;-77
2022/11/13 00:21:53;;;;;;;62.70;27.30;;;;;;;6.40;95.21;99972.19;102519;1304;138187;-78
2022/11/13 00:24:39;;;;;;;60.80;26.60;;;;;;;6.39;95.08;99974.83;102673;1312;25277;-77
2022/11/13 00:27:24;;;;;;;56.90;25.70;;;;;;;6.38;94.89;99975.69;102474;1311;138642;-78
2022/11/13 00:30:11;;;;;;;58.40;26.70;;;;;;;6.36;94.99;99976.38;102645;1302;23436;-78
2022/11/13 00:32:56;;;;;;;56.40;27.20;;;;;;;6.36;94.71;99973.02;102711;1304;27675;-78
2022/11/13 00:35:42;;;;;;;54.40;23.70;;;;;;;6.35;94.83;99967.48;102680;1300;25364;-78
2022/11/13 00:38:29;;;;;;;61.60;26.70;;;;;;;6.33;94.73;99967.70;102678;1296;23222;-77
2022/11/13 00:41:15;;;;;;;65.80;27.20;;;;;;;6.30;94.88;99964.06;102481;1311;137885;-78
2022/11/13 00:44:02;;;;;;;65.80;28.90;;;;;;;6.30;94.90;99958.70;102531;1318;23112;-78
2022/11/13 00:46:48;;;;;;;62.50;28.10;;;;;;;6.32;95.18;99959.05;102423;1318;138011;-77
2022/11/13 00:49:34;;;;;;;57.20;25.40;;;;;;;6.33;95.28;99962.16;102459;1318;22169;-78
2022/11/13 00:52:19;;;;;;;61.20;25.90;;;;;;;6.34;95.06;99960.38;102647;1318;137788;-78
2022/11/13 00:55:05;;;;;;;62.00;27.40;;;;;;;6.36;94.98;99960.05;102125;1313;25569;-78
2022/11/13 00:57:51;;;;;;;65.90;28.80;;;;;;;6.36;95.05;99958.75;102852;1310;139572;-77
2022/11/13 01:00:38;;;;;;;61.90;27.50;;;;;;;6.36;95.11;99957.64;102544;1319;24074;-77
2022/11/13 01:03:24;;;;;;;60.20;26.80;;;;;;;6.37;95.06;99956.64;102209;1313;138117;-77
2022/11/13 01:06:23;;;;;;;61.00;26.50;;;;;;;6.37;94.74;99951.94;102429;1319;22590;-77
2022/11/13 01:09:08;;;;;;;62.60;27.20;;;;;;;6.36;94.46;99947.14;102307;1313;25411;-77
2022/11/13 01:11:54;;;;;;;61.30;27.00;;;;;;;6.34;94.62;99947.42;102497;1311;22507;-78
2022/11/13 01:14:39;;;;;;;70.90;29.30;;;;;;;6.32;94.41;99949.48;102608;1302;25441;-77
2022/11/13 01:17:25;;;;;;;67.00;26.80;;;;;;;6.30;94.63;99946.12;102427;1320;137873;-78
2022/11/13 01:20:11;;;;;;;65.50;27.70;;;;;;;6.29;94.61;99943.02;102551;1320;22470;-78
2022/11/13 01:22:56;;;;;;;60.50;26.80;;;;;;;6.27;94.60;99942.23;102443;1304;138170;-77
2022/11/13 01:25:42;;;;;;;66.80;28.00;;;;;;;6.27;94.76;99941.20;102557;1296;22516;-77
2022/11/13 01:28:28;;;;;;;62.30;27.30;;;;;;;6.26;94.33;99945.33;102486;1320;137867;-77
2022/11/13 01:31:20;;;;;;;67.00;29.00;;;;;;;6.23;94.29;99945.27;102461;1312;25266;-78
2022/11/13 01:34:06;;;;;;;64.60;27.50;;;;;;;6.21;94.34;99944.16;102534;1312;138460;-78
2022/11/13 01:36:51;;;;;;;66.20;27.90;;;;;;;6.20;94.62;99939.33;102482;1312;22501;-77
2022/11/13 01:39:37;;;;;;;69.20;28.90;;;;;;;6.18;94.74;99938.05;102325;1313;140071;-78
2022/11/13 01:42:23;;;;;;;70.10;29.50;;;;;;;6.17;94.74;99938.36;102405;1321;22503;-77
2022/11/13 01:45:46;;;;;;;66.20;26.70;;;;;;;6.13;94.65;99930.95;102353;1320;22656;-78
2022/11/13 01:48:39;;;;;;;64.80;27.80;;;;;;;6.08;94.51;99924.48;102598;1303;22646;-78
2022/11/13 01:51:49;;;;;;;68.40;28.50;;;;;;;6.06;94.76;99927.33;102496;1317;22532;-77
2022/11/13 01:55:01;;;;;;;70.40;30.00;;;;;;;6.06;95.09;99925.72;102242;1320;25580;-77
2022/11/13 01:57:47;;;;;;;68.80;29.20;;;;;;;6.08;95.14;99921.16;102491;1320;138639;-77
2022/11/13 02:00:36;;;;;;;65.80;28.70;;;;;;;6.09;95.12;99918.18;102270;1319;22761;-77
2022/11/13 02:03:21;;;;;;;70.10;29.40;;;;;;;6.08;94.91;99912.19;102556;1318;25789;-77
2022/11/13 02:06:07;;;;;;;77.80;31.20;;;;;;;6.10;95.36;99913.80;102679;1290;22632;-77
2022/11/13 02:08:53;;;;;;;70.30;30.60;;;;;;;6.11;95.13;99915.48;102607;1310;25251;-78
2022/11/13 02:11:39;;;;;;;75.60;31.90;;;;;;;6.12;95.41;99912.16;102114;1312;139166;-78
2022/11/13 02:14:27;;;;;;;73.30;29.20;;;;;;;6.13;95.37;99915.02;102411;1310;22956;-77
2022/11/13 02:17:30;;;;;;;73.00;28.70;;;;;;;6.14;95.22;99906.88;102313;1310;137884;-77
2022/11/13 02:20:29;;;;;;;71.10;28.30;;;;;;;6.13;95.10;99904.63;102405;1304;22774;-78
2022/11/13 02:23:40;;;;;;;72.30;29.00;;;;;;;6.12;94.94;99910.16;102280;1318;137994;-77
2022/11/13 02:26:28;;;;;;;68.70;27.80;;;;;;;6.11;95.15;99910.98;102416;1318;24244;-77
2022/11/13 02:29:13;;;;;;;66.70;26.80;;;;;;;6.11;95.06;99908.89;102147;1316;137768;-77
2022/11/13 02:31:59;;;;;;;75.10;29.40;;;;;;;6.08;95.02;99911.81;102412;1310;22498;-77
2022/11/13 02:34:45;;;;;;;74.30;30.40;;;;;;;6.06;95.07;99910.77;102322;1318;138978;-77
2022/11/13 02:37:30;;;;;;;63.30;27.60;;;;;;;6.05;95.29;99912.50;102332;1310;22602;-77
2022/11/13 02:40:17;;;;;;;71.50;28.20;;;;;;;6.04;94.93;99912.08;102288;1304;138010;-77
2022/11/13 02:43:02;;;;;;;73.90;28.80;;;;;;;6.04;95.18;99911.27;102417;1310;22515;-77
2022/11/13 02:45:48;;;;;;;75.00;30.10;;;;;;;6.04;95.24;99906.16;102492;1302;139019;-78
2022/11/13 02:48:34;;;;;;;72.70;29.20;;;;;;;6.04;95.15;99906.49;102499;1296;25404;-78
2022/11/13 02:51:19;;;;;;;71.20;29.50;;;;;;;6.03;95.19;99905.60;102531;1303;25700;-78
2022/11/13 02:54:05;;;;;;;72.30;28.80;;;;;;;6.02;94.87;99902.26;102389;1318;23190;-77
2022/11/13 02:56:50;;;;;;;74.80;30.30;;;;;;;6.01;95.01;99900.06;102461;1310;24395;-77
2022/11/13 02:59:38;;;;;;;83.30;32.20;;;;;;;6.00;95.16;99897.55;102296;1302;137827;-77
2022/11/13 03:02:24;;;;;;;76.40;31.90;;;;;;;6.00;95.41;99905.55;102459;1303;22491;-77
2022/11/13 03:05:09;;;;;;;77.90;32.90;;;;;;;6.02;95.37;99902.63;102194;1311;139029;-77
2022/11/13 03:07:55;;;;;;;76.60;30.30;;;;;;;6.05;95.16;99906.13;102172;1286;22482;-77
2022/11/13 03:10:40;;;;;;;80.80;30.20;;;;;;;6.03;94.80;99905.55;102324;1304;138155;-77
2022/11/13 03:13:27;;;;;;;83.00;32.80;;;;;;;5.99;94.81;99906.58;102430;1310;22560;-77
2022/11/13 03:16:15;;;;;;;83.90;33.50;;;;;;;5.99;95.15;99908.80;102292;1294;137985;-77
2022/11/13 03:19:01;;;;;;;81.70;31.20;;;;;;;5.99;95.15;99914.17;102374;1318;22501;-77
2022/11/13 03:21:46;;;;;;;84.70;33.00;;;;;;;6.01;95.29;99915.40;102272;1318;137992;-77
2022/11/13 03:24:34;;;;;;;89.00;32.50;;;;;;;6.01;95.45;99917.91;102370;1318;22537;-77
2022/11/13 03:27:20;;;;;;;83.60;30.50;;;;;;;6.01;95.44;99920.91;102346;1314;22509;-78
2022/11/13 03:30:07;;;;;;;80.60;33.00;;;;;;;6.02;95.19;99927.20;102283;1318;23034;-77
2022/11/13 03:32:54;;;;;;;83.20;31.00;;;;;;;6.02;95.42;99928.25;102107;1318;25349;-77
2022/11/13 03:35:41;;;;;;;77.30;30.10;;;;;;;6.03;95.29;99926.83;102287;1318;139016;-77
2022/11/13 03:38:28;;;;;;;76.50;31.10;;;;;;;6.04;95.31;99926.17;102402;1311;22602;-77
2022/11/13 03:41:13;;;;;;;75.80;30.70;;;;;;;6.04;95.30;99929.08;102374;1309;137834;-78
2022/11/13 03:43:59;;;;;;;76.60;30.60;;;;;;;6.03;95.22;99923.11;101950;1321;23302;-78
2022/11/13 03:46:44;;;;;;;67.40;28.60;;;;;;;6.03;95.19;99928.69;101844;1324;138005;-77
2022/11/13 03:49:29;;;;;;;77.60;30.80;;;;;;;6.01;95.12;99929.64;101781;1324;22476;-78
2022/11/13 03:52:15;;;;;;;70.90;27.60;;;;;;;5.99;94.92;99928.37;101566;1305;137982;-78
2022/11/13 03:55:01;;;;;;;77.90;30.50;;;;;;;5.96;95.15;99926.60;101785;1324;22491;-78
2022/11/13 03:57:46;;;;;;;71.80;28.10;;;;;;;5.95;95.13;99926.91;101623;1315;138266;-77
2022/11/13 04:00:32;;;;;;;69.20;26.60;;;;;;;5.93;95.23;99930.71;101670;1295;22522;-78
2022/11/13 04:03:19;;;;;;;73.00;29.20;;;;;;;5.91;95.14;99927.64;102291;1310;22493;-78
2022/11/13 04:06:05;;;;;;;74.80;27.90;;;;;;;5.89;95.17;99927.35;102374;1317;138168;-77
2022/11/13 04:08:50;;;;;;;67.30;24.60;;;;;;;5.89;95.08;99930.38;102450;1310;22506;-77
2022/11/13 04:11:36;;;;;;;76.60;28.70;;;;;;;5.91;95.64;99928.39;102530;1311;139061;-78
2022/11/13 04:14:21;;;;;;;73.20;30.00;;;;;;;5.91;95.23;99929.27;102477;1311;22494;-77
2022/11/13 04:17:07;;;;;;;84.20;31.70;;;;;;;5.91;95.28;99922.64;102329;1304;138909;-77
2022/11/13 04:19:52;;;;;;;82.60;30.70;;;;;;;5.90;95.12;99925.38;102359;1310;24425;-77
2022/11/13 04:22:38;;;;;;;78.10;30.30;;;;;;;5.90;94.97;99925.08;102268;1312;139294;-77
2022/11/13 04:25:25;;;;;;;78.70;30.00;;;;;;;5.89;95.00;99931.00;102344;1316;22499;-78
2022/11/13 04:28:11;;;;;;;74.70;30.40;;;;;;;5.89;94.96;99932.22;102293;1318;139165;-78
2022/11/13 04:30:56;;;;;;;76.10;30.90;;;;;;;5.88;95.21;99926.92;102409;1318;22938;-78
2022/11/13 04:33:41;;;;;;;72.50;28.30;;;;;;;5.88;95.28;99924.39;102480;1296;138752;-78
2022/11/13 04:36:29;;;;;;;76.80;29.50;;;;;;;5.87;95.32;99927.73;102380;1318;23157;-78
2022/11/13 04:39:15;;;;;;;83.10;31.10;;;;;;;5.87;95.23;99927.27;102366;1296;22521;-77
2022/11/13 04:45:06;;;;;;;72.40;28.70;;;;;;;5.87;95.43;99922.57;102464;1304;24278;-77
2022/11/13 04:47:52;;;;;;;75.40;28.90;;;;;;;5.87;95.13;99923.27;102359;1302;137941;-77
2022/11/13 04:50:38;;;;;;;72.90;27.90;;;;;;;5.85;95.24;99924.70;102118;1296;24199;-77
2022/11/13 04:53:23;;;;;;;76.30;31.00;;;;;;;5.84;94.92;99925.60;102283;1302;138223;-77
2022/11/13 04:56:09;;;;;;;73.00;29.50;;;;;;;5.82;95.15;99920.97;102389;1290;22483;-77
2022/11/13 04:58:54;;;;;;;73.00;28.90;;;;;;;5.81;95.02;99916.92;102312;1309;139786;-77
2022/11/13 05:01:43;;;;;;;73.10;27.70;;;;;;;5.80;95.37;99918.69;102433;1306;22483;-77
2022/11/13 05:04:29;;;;;;;65.10;26.90;;;;;;;5.80;95.30;99920.83;102219;1303;137805;-77
2022/11/13 05:07:14;;;;;;;62.30;26.00;;;;;;;5.81;95.33;99918.58;102136;1296;25378;-77
2022/11/13 05:10:00;;;;;;;72.70;28.30;;;;;;;5.82;95.53;99913.61;102123;1309;138402;-77
2022/11/13 05:12:45;;;;;;;70.10;27.50;;;;;;;5.82;95.49;99910.50;102388;1297;22548;-77
2022/11/13 05:15:33;;;;;;;74.70;29.00;;;;;;;5.83;95.43;99913.06;102607;1292;22500;-77
2022/11/13 05:18:19;;;;;;;72.50;28.90;;;;;;;5.84;95.36;99910.96;102345;1309;22498;-77
2022/11/13 05:21:06;;;;;;;74.60;27.90;;;;;;;5.83;95.15;99907.82;102427;1312;22481;-77
2022/11/13 05:23:51;;;;;;;79.20;29.90;;;;;;;5.83;95.38;99910.80;102332;1318;138942;-77
2022/11/13 05:26:38;;;;;;;73.80;28.20;;;;;;;5.82;95.31;99915.35;102387;1318;22836;-78
2022/11/13 05:29:23;;;;;;;78.50;29.00;;;;;;;5.80;95.34;99917.04;102315;1305;137871;-78
2022/11/13 05:32:09;;;;;;;75.50;28.70;;;;;;;5.80;95.23;99911.86;102472;1296;22979;-77
2022/11/13 05:34:54;;;;;;;75.60;29.20;;;;;;;5.81;95.60;99912.95;102298;1310;138911;-77
2022/11/13 05:37:40;;;;;;;87.80;32.00;;;;;;;5.81;95.51;99914.43;102368;1309;22496;-77
2022/11/13 05:40:25;;;;;;;77.90;30.00;;;;;;;5.82;95.87;99917.77;102113;1306;138525;-77
2022/11/13 05:43:11;;;;;;;90.30;32.20;;;;;;;5.82;95.62;99915.02;102225;1302;22544;-78
2022/11/13 05:46:00;;;;;;;94.10;33.90;;;;;;;5.82;95.82;99910.29;102296;1303;138198;-77
2022/11/13 05:48:54;;;;;;;88.10;32.00;;;;;;;5.83;95.91;99911.46;102359;1311;25288;-77
2022/11/13 05:51:40;;;;;;;88.90;32.00;;;;;;;5.83;95.78;99913.09;102352;1303;22486;-78
2022/11/13 05:54:25;;;;;;;85.40;31.40;;;;;;;5.84;96.01;99913.94;102429;1293;25297;-78
2022/11/13 05:57:11;;;;;;;103.70;37.30;;;;;;;5.83;95.78;99910.90;102384;1303;22485;-77
2022/11/13 05:59:56;;;;;;;88.70;34.10;;;;;;;5.83;95.76;99908.54;102297;1303;139165;-77
2022/11/13 06:02:43;;;;;;;97.90;33.30;;;;;;;5.83;95.72;99904.80;102431;1310;24264;-77
2022/11/13 06:05:29;;;;;;;96.10;35.50;;;;;;;5.83;95.94;99906.41;102094;1287;137840;-77
2022/11/13 06:08:14;;;;;;;99.70;36.50;;;;;;;5.85;96.03;99905.52;102205;1309;22480;-77
2022/11/13 06:11:10;;;;;;;98.10;38.90;;;;;;;5.83;95.77;99907.27;102080;1305;137844;-77
2022/11/13 06:13:57;;;;;;;92.50;32.80;;;;;;;5.82;95.61;99909.08;102340;1310;22520;-77
2022/11/13 06:16:43;;;;;;;92.20;32.90;;;;;;;5.80;95.58;99911.16;102191;1303;138435;-77
2022/11/13 06:19:29;;;;;;;96.60;36.20;;;;;;;5.78;95.80;99906.52;102372;1318;22648;-77
2022/11/13 06:22:14;;;;;;;89.70;32.70;;;;;;;5.78;95.74;99908.34;102300;1312;140032;-78
2022/11/13 06:25:00;;;;;;;90.10;33.60;;;;;;;5.77;95.63;99907.80;102253;1318;24025;-78
2022/11/13 06:27:46;;;;;;;91.40;34.10;;;;;;;5.77;95.87;99907.66;102404;1318;22504;-77
2022/11/13 06:30:32;;;;;;;88.60;32.70;;;;;;;5.78;96.01;99906.27;102334;1310;22480;-77
2022/11/13 06:33:17;;;;;;;87.90;32.30;;;;;;;5.81;96.01;99904.20;102450;1296;22495;-77
2022/11/13 06:36:06;;;;;;;82.20;32.40;;;;;;;5.81;95.85;99904.84;102232;1312;139457;-77
2022/11/13 06:38:52;;;;;;;87.50;32.40;;;;;;;5.81;95.74;99906.95;102336;1310;22493;-78
2022/11/13 06:41:40;;;;;;;83.50;31.40;;;;;;;5.82;95.68;99910.16;101464;1318;1165938;-78
2022/11/13 06:44:25;;;;;;;86.40;34.10;;;;;;;5.83;95.91;99909.02;102719;1310;22516;-78
2022/11/13 06:47:11;;;;;;;92.80;33.30;;;;;;;5.83;95.83;99904.75;102493;1315;139124;-77
2022/11/13 06:49:56;;;;;;;81.70;31.20;;;;;;;5.84;95.61;99902.02;102597;1318;24292;-77
2022/11/13 06:52:42;;;;;;;86.00;34.50;;;;;;;5.84;95.88;99906.65;102711;1296;137851;-77
2022/11/13 06:55:27;;;;;;;83.90;32.60;;;;;;;5.85;95.58;99899.70;102733;1296;25468;-77
2022/11/13 06:58:14;;;;;;;82.60;32.70;;;;;;;5.85;95.35;99898.15;102578;1308;141137;-77
2022/11/13 07:01:18;;;;;;;76.80;31.20;;;;;;;5.85;95.43;99902.23;102623;1300;24255;-77
2022/11/13 07:04:05;;;;;;;68.30;29.00;;;;;;;5.87;95.48;99907.42;102406;1311;137986;-78
2022/11/13 07:06:50;;;;;;;76.50;31.90;;;;;;;5.89;95.53;99906.63;102560;1303;25223;-78
2022/11/13 07:09:35;;;;;;;77.70;31.50;;;;;;;5.91;95.37;99898.67;102504;1314;22507;-78
2022/11/13 07:12:21;;;;;;;76.60;31.90;;;;;;;5.90;95.18;99897.51;102327;1319;22503;-78
2022/11/13 07:15:07;;;;;;;74.90;29.80;;;;;;;5.91;95.40;99896.52;102614;1299;22495;-78
2022/11/13 07:17:53;;;;;;;66.60;29.40;;;;;;;5.91;95.17;99891.41;102379;1297;137739;-77
2022/11/13 07:20:38;;;;;;;69.90;29.50;;;;;;;5.90;94.97;99892.97;102650;1286;25284;-78
2022/11/13 07:23:24;;;;;;;73.90;31.00;;;;;;;5.90;95.12;99901.11;102542;1302;137908;-78
2022/11/13 07:26:10;;;;;;;69.00;30.00;;;;;;;5.90;95.07;99901.70;102724;1294;24450;-78
2022/11/13 07:28:59;;;;;;;72.80;28.90;;;;;;;5.91;94.98;99901.73;102543;1310;139405;-77
2022/11/13 07:31:45;;;;;;;65.60;28.20;;;;;;;5.92;95.08;99899.25;102660;1318;22548;-78
2022/11/13 07:34:31;;;;;;;66.00;30.50;;;;;;;5.93;94.82;99902.13;102490;1288;139654;-78
2022/11/13 07:37:17;;;;;;;62.70;27.00;;;;;;;5.93;94.66;99903.71;102782;1317;24046;-77
2022/11/13 07:40:04;;;;;;;69.50;28.20;;;;;;;5.93;94.67;99900.26;102518;1316;138596;-78
2022/11/13 07:42:58;;;;;;;78.70;31.30;;;;;;;5.91;94.60;99897.02;102574;1318;22486;-78
2022/11/13 07:45:44;;;;;;;74.80;30.60;;;;;;;5.93;94.91;99897.21;102613;1303;22487;-77
2022/11/13 07:48:29;;;;;;;74.60;31.40;;;;;;;5.96;94.78;99902.63;102697;1291;22530;-77
2022/11/13 07:51:15;;;;;;;63.30;28.70;;;;;;;5.98;94.56;99907.09;102737;1310;22510;-77
2022/11/13 07:54:00;;;;;;;60.00;27.50;;;;;;;5.99;94.46;99909.35;102654;1304;139745;-77
2022/11/13 07:56:46;;;;;;;71.30;28.90;;;;;;;5.98;94.43;99905.88;102858;1318;25527;-77
2022/11/13 07:59:31;;;;;;;70.40;27.90;;;;;;;5.98;94.31;99905.48;102600;1318;137732;-78
2022/11/13 08:02:17;;;;;;;66.80;27.40;;;;;;;5.99;94.62;99903.86;102665;1294;23936;-78
2022/11/13 08:05:02;;;;;;;63.70;26.10;;;;;;;6.01;94.35;99907.30;102579;1296;139654;-77
2022/11/13 08:07:50;;;;;;;75.90;28.70;;;;;;;6.03;94.35;99908.47;102720;1304;22490;-78
2022/11/13 08:10:36;;;;;;;65.70;25.80;;;;;;;6.07;94.46;99905.46;102532;1318;137977;-78
2022/11/13 08:13:22;;;;;;;69.40;29.00;;;;;;;6.11;94.60;99902.73;102400;1297;22563;-78
2022/11/13 08:16:07;;;;;;;66.30;26.60;;;;;;;6.11;94.01;99910.30;102625;1302;138036;-78
2022/11/13 08:18:54;;;;;;;69.60;27.50;;;;;;;6.05;93.61;99909.98;102716;1305;22546;-78
2022/11/13 08:21:40;;;;;;;63.80;27.60;;;;;;;6.04;94.10;99912.98;102683;1297;22495;-78
2022/11/13 08:24:25;;;;;;;67.70;26.60;;;;;;;6.06;94.06;99912.85;102571;1318;137752;-78
2022/11/13 08:27:11;;;;;;;66.00;27.20;;;;;;;6.08;94.58;99913.52;102651;1300;25349;-78
2022/11/13 08:29:56;;;;;;;68.80;26.80;;;;;;;6.14;94.84;99914.92;102542;1317;137875;-78
2022/11/13 08:32:42;;;;;;;69.00;29.00;;;;;;;6.17;94.08;99916.09;103644;1290;22491;-78
2022/11/13 08:35:27;;;;;;;71.50;28.90;;;;;;;6.20;94.24;99917.34;102999;1294;137754;-78
2022/11/13 08:38:13;;;;;;;63.30;26.40;;;;;;;6.24;94.47;99914.27;102812;1291;22480;-78
2022/11/13 08:41:00;;;;;;;66.30;28.70;;;;;;;6.29;94.45;99918.29;103104;1294;138025;-78
2022/11/13 08:43:46;;;;;;;59.70;25.30;;;;;;;6.31;94.03;99917.16;104464;1303;22189;-77
2022/11/13 08:46:31;;;;;;;66.30;26.90;;;;;;;6.32;93.55;99914.62;102606;1312;137987;-76
2022/11/13 08:49:17;;;;;;;62.60;26.50;;;;;;;6.32;93.71;99917.19;102806;1302;23887;-78
2022/11/13 08:52:03;;;;;;;61.60;27.10;;;;;;;6.34;93.85;99914.57;102485;1318;139296;-78
2022/11/13 08:54:49;;;;;;;71.60;30.50;;;;;;;6.36;93.63;99914.89;102626;1317;24342;-79
2022/11/13 08:57:34;;;;;;;65.40;29.90;;;;;;;6.37;93.52;99917.61;102966;1290;22518;-78
2022/11/13 09:00:20;;;;;;;71.20;30.80;;;;;;;6.38;93.35;99918.93;102684;1318;139603;-78
2022/11/13 09:03:06;;;;;;;69.60;29.30;;;;;;;6.39;93.57;99921.70;102867;1318;25325;-78
2022/11/13 09:05:51;;;;;;;77.20;32.20;;;;;;;6.44;93.91;99921.98;102599;1310;139377;-78
2022/11/13 09:08:37;;;;;;;81.80;30.50;;;;;;;6.48;93.46;99925.40;102665;1312;22498;-78
2022/11/13 09:11:26;;;;;;;84.80;32.20;;;;;;;6.50;93.32;99923.90;102589;1299;137845;-78
2022/11/13 09:14:12;;;;;;;82.30;33.00;;;;;;;6.53;93.76;99922.95;102782;1317;24406;-78
2022/11/13 09:16:58;;;;;;;81.30;31.90;;;;;;;6.54;93.76;99915.06;102657;1309;138951;-78
2022/11/13 09:19:44;;;;;;;73.30;29.90;;;;;;;6.56;93.41;99915.18;102781;1306;24272;-78
2022/11/13 09:22:29;;;;;;;76.20;30.80;;;;;;;6.57;93.19;99920.55;102243;1297;138420;-78
2022/11/13 09:25:16;;;;;;;77.20;32.40;;;;;;;6.55;93.36;99918.27;102317;1309;24456;-78
2022/11/13 09:28:08;;;;;;;81.10;33.50;;;;;;;6.55;93.05;99917.73;102475;1318;139013;-79
2022/11/13 09:30:56;;;;;;;84.50;34.60;;;;;;;6.53;92.67;99917.66;102693;1299;26520;-79
2022/11/13 09:33:50;;;;;;;86.80;33.00;;;;;;;6.53;93.16;99915.55;102830;1318;24292;-78
2022/11/13 09:36:40;;;;;;;86.70;34.80;;;;;;;6.56;93.20;99918.67;102733;1309;22523;-78
2022/11/13 09:39:27;;;;;;;84.40;34.70;;;;;;;6.60;93.38;99919.10;102992;1299;24276;-78
2022/11/13 09:42:21;;;;;;;82.30;31.40;;;;;;;6.62;93.30;99915.20;102593;1294;137780;-78
2022/11/13 09:45:13;;;;;;;76.70;30.10;;;;;;;6.64;93.27;99906.98;102311;1313;22465;-78
2022/11/13 09:48:19;;;;;;;82.00;29.10;;;;;;;6.66;92.95;99895.84;102535;1300;137835;-78
2022/11/13 09:51:20;;;;;;;65.20;27.20;;;;;;;6.68;93.16;99893.17;102702;1286;22594;-78
2022/11/13 09:54:10;;;;;;;73.30;27.70;;;;;;;6.70;92.78;99895.70;102600;1302;137928;-78
2022/11/13 09:57:08;;;;;;;71.00;29.90;;;;;;;6.71;92.69;99899.25;102760;1308;22621;-78
2022/11/13 10:00:04;;;;;;;73.70;27.20;;;;;;;6.71;92.47;99898.17;102536;1293;137991;-78
2022/11/13 10:03:12;;;;;;;68.90;27.10;;;;;;;6.72;92.55;99893.33;102715;1309;22595;-78
2022/11/13 10:06:44;;;;;;;77.10;27.60;;;;;;;6.73;92.60;99892.08;102644;1317;138527;-78
2022/11/13 10:10:04;;;;;;;65.90;25.70;;;;;;;6.75;92.19;99891.90;101756;1318;22510;-78
2022/11/13 10:12:54;;;;;;;71.20;26.50;;;;;;;6.78;92.40;99885.77;101855;1325;22523;-78
2022/11/13 10:15:43;;;;;;;58.60;22.30;;;;;;;6.81;92.27;99883.54;101662;1308;24400;-78
2022/11/13 10:18:32;;;;;;;;;;;;;;;6.82;91.99;99888.30;101425;1319;137983;-78
2022/11/13 10:21:18;;;;;;;;;;;;;;;6.82;92.09;99883.70;101576;1312;24463;-79
2022/11/13 10:24:16;;;;;;;51.80;21.70;;;;;;;6.82;91.84;99885.27;101485;1327;124268;-79
2022/11/13 10:27:07;;;;;;;60.50;25.40;;;;;;;6.80;91.66;99879.25;101382;1321;22507;-76
2022/11/13 10:29:52;;;;;;;63.20;28.20;;;;;;;6.80;91.91;99873.52;101228;1301;138067;-76
2022/11/13 10:32:38;;;;;;;67.60;25.10;;;;;;;6.84;92.15;99871.60;101379;1318;24272;-76
2022/11/13 10:35:40;;;;;;;60.20;23.40;;;;;;;6.87;92.09;99867.44;101285;1311;138032;-76
2022/11/13 10:38:48;;;;;;;56.60;23.10;;;;;;;6.93;91.80;99865.34;101445;1312;22529;-79
2022/11/13 10:41:49;;;;;;;53.80;22.20;;;;;;;6.97;91.65;99864.02;101461;1309;137993;-78
2022/11/13 10:44:34;;;;;;;56.30;24.20;;;;;;;7.04;92.05;99862.37;101784;1318;23468;-79
2022/11/13 10:47:23;;;;;;;57.00;24.70;;;;;;;7.11;91.74;99860.01;102416;1293;137918;-79
2022/11/13 10:50:11;;;;;;;66.10;25.30;;;;;;;7.19;91.66;99864.70;102452;1316;23212;-78
2022/11/13 10:52:57;;;;;;;65.70;26.10;;;;;;;7.24;91.16;99862.10;102384;1318;138133;-79
2022/11/13 10:55:45;;;;;;;65.40;27.20;;;;;;;7.28;91.20;99862.92;102403;1304;24289;-79
2022/11/13 10:58:30;;;;;;;63.80;25.50;;;;;;;7.28;91.00;99859.23;102357;1296;138194;-78
2022/11/13 11:01:22;;;;;;;62.50;27.40;;;;;;;7.31;90.61;99858.83;102400;1318;24396;-79
2022/11/13 11:04:18;;;;;;;58.70;24.70;;;;;;;7.35;90.90;99859.56;102396;1318;22501;-79
2022/11/13 11:07:14;;;;;;;49.70;20.80;;;;;;;7.37;90.42;99860.25;102357;1318;24125;-79
2022/11/13 11:10:00;;;;;;;57.70;23.70;;;;;;;7.42;90.57;99862.16;102371;1296;22451;-79
2022/11/13 11:13:01;;;;;;;57.20;24.40;;;;;;;7.50;90.40;99862.13;102466;1303;24259;-79
2022/11/13 11:15:52;;;;;;;52.80;21.20;;;;;;;7.55;89.46;99856.73;102371;1311;22502;-79
2022/11/13 11:18:48;;;;;;;49.40;22.40;;;;;;;7.57;89.24;99859.42;102300;1310;138414;-78
2022/11/13 11:21:36;;;;;;;59.90;25.30;;;;;;;7.59;88.80;99859.56;102458;1303;22487;-79
2022/11/13 11:24:57;;;;;;;58.10;24.10;;;;;;;7.62;88.93;99852.21;102698;1318;138538;-79
2022/11/13 11:27:50;;;;;;;63.60;26.30;;;;;;;7.63;88.67;99844.25;102377;1318;22713;-76
2022/11/13 11:30:46;;;;;;;60.80;26.70;;;;;;;7.57;88.50;99844.07;102239;1318;139098;-76
2022/11/13 11:33:50;;;;;;;60.80;26.40;;;;;;;7.56;89.16;99836.39;102143;1293;25533;-77
2022/11/13 11:37:04;;;;;;;68.50;28.00;;;;;;;7.57;89.04;99832.72;102221;1318;139890;-76
2022/11/13 11:40:33;;;;;;;66.10;25.40;;;;;;;7.57;88.72;99830.39;102195;1295;24343;-76
2022/11/13 11:43:42;;;;;;;71.30;29.60;;;;;;;7.61;88.76;99824.83;102522;1318;22689;-76
2022/11/13 11:46:28;;;;;;;;;;;;;;;7.68;89.14;99823.17;102378;1318;138226;-76
2022/11/13 11:49:14;;;;;;;53.00;23.50;;;;;;;7.76;88.99;99820.41;102433;1316;24482;-76
2022/11/13 11:52:18;;;;;;;64.50;27.10;;;;;;;7.82;88.83;99814.24;102340;1318;22500;-76
2022/11/13 11:55:20;;;;;;;64.80;26.30;;;;;;;7.85;88.63;99813.37;102342;1297;22489;-76
2022/11/13 11:58:26;;;;;;;66.00;27.00;;;;;;;7.89;88.64;99805.36;102773;1318;22485;-77
2022/11/13 12:01:52;;;;;;;61.40;26.70;;;;;;;7.91;88.08;99801.11;102412;1294;22486;-77
2022/11/13 12:05:00;;;;;;;52.10;21.80;;;;;;;7.91;88.21;99796.98;102166;1317;138440;-77
2022/11/13 12:08:05;;;;;;;56.10;24.00;;;;;;;7.93;87.79;99796.04;102273;1317;22545;-77
2022/11/13 12:11:12;;;;;;;57.70;24.60;;;;;;;7.92;88.04;99791.06;102202;1318;138400;-77
2022/11/13 12:14:23;;;;;;;60.50;26.70;;;;;;;7.93;87.78;99792.95;102298;1317;23922;-77
2022/11/13 12:17:35;;;;;;;51.20;24.80;;;;;;;7.88;87.39;99795.70;102260;1293;138737;-77
2022/11/13 12:20:46;;;;;;;51.80;23.90;;;;;;;7.88;87.42;99800.45;102380;1311;24347;-77
2022/11/13 12:23:58;;;;;;;53.50;23.30;;;;;;;7.87;87.44;99798.40;102311;1303;138346;-77
2022/11/13 12:27:06;;;;;;;51.80;23.10;;;;;;;7.86;87.26;99790.02;102360;1318;22755;-77
2022/11/13 12:30:17;;;;;;;47.60;21.70;;;;;;;7.88;87.62;99789.65;102399;1299;139852;-77
2022/11/13 12:33:15;;;;;;;50.10;22.60;;;;;;;7.90;87.72;99787.38;102339;1309;25234;-77
2022/11/13 12:36:02;;;;;;;55.30;24.50;;;;;;;7.92;87.53;99780.45;102114;1298;138104;-77
2022/11/13 12:39:04;;;;;;;59.30;26.80;;;;;;;7.93;87.63;99771.76;102234;1311;24371;-77
2022/11/13 12:41:58;;;;;;;59.10;26.50;;;;;;;7.94;87.41;99763.30;102305;1293;138248;-79
2022/11/13 12:45:11;;;;;;;58.80;24.80;;;;;;;7.95;87.54;99758.36;102421;1317;22495;-77
2022/11/13 12:48:27;;;;;;;57.00;26.10;;;;;;;7.95;87.39;99754.86;102128;1299;139280;-77
2022/11/13 12:51:15;;;;;;;55.10;26.00;;;;;;;7.95;87.36;99750.14;102311;1310;22492;-77
2022/11/13 12:54:01;;;;;;;61.30;26.60;;;;;;;7.93;87.23;99747.97;102093;1317;139340;-77
2022/11/13 12:56:46;;;;;;;63.80;27.90;;;;;;;7.92;87.30;99752.96;102171;1297;25280;-77
2022/11/13 12:59:39;;;;;;;57.90;27.50;;;;;;;7.90;87.49;99751.53;102170;1294;138148;-77
2022/11/13 13:02:46;;;;;;;58.80;25.90;;;;;;;7.90;87.49;99752.83;102245;1317;22484;-77